createdAt,value
2023-03-04T00:02:23.566Z,0.90
2023-03-04T00:04:53.155Z,0.90
2023-03-04T00:07:19.957Z,0.90
2023-03-04T00:09:46.854Z,1.00
2023-03-04T00:12:13.850Z,1.00
2023-03-04T00:14:40.808Z,0.90
2023-03-04T00:17:07.687Z,1.00
2023-03-04T00:19:35.469Z,0.90
2023-03-04T00:22:04.002Z,0.90
2023-03-04T00:24:31.083Z,0.90
2023-03-04T00:26:58.005Z,0.90
2023-03-04T00:29:24.853Z,0.90
2023-03-04T00:31:51.702Z,0.90
2023-03-04T00:34:21.138Z,0.90
2023-03-04T00:36:47.935Z,0.90
2023-03-04T00:39:16.853Z,0.90
2023-03-04T00:41:45.938Z,1.00
2023-03-04T00:44:12.698Z,0.90
2023-03-04T00:46:39.486Z,1.00
2023-03-04T00:49:06.305Z,1.10
2023-03-04T00:51:33.058Z,1.00
2023-03-04T00:54:01.030Z,1.00
2023-03-04T00:56:30.438Z,1.00
2023-03-04T00:58:59.491Z,1.00
2023-03-04T01:01:26.440Z,1.00
2023-03-04T01:03:55.818Z,1.00
2023-03-04T01:06:22.653Z,1.00
2023-03-04T01:08:49.451Z,1.00
2023-03-04T01:11:18.617Z,1.00
2023-03-04T01:13:45.525Z,1.00
2023-03-04T01:16:13.073Z,1.00
2023-03-04T01:18:40.016Z,1.10
2023-03-04T01:21:06.811Z,1.00
2023-03-04T01:23:33.616Z,1.10
2023-03-04T01:26:00.588Z,1.10
2023-03-04T01:28:27.368Z,1.00
2023-03-04T01:30:54.176Z,1.00
2023-03-04T01:33:23.288Z,1.00
2023-03-04T01:35:50.199Z,1.00
2023-03-04T01:38:17.055Z,0.90
2023-03-04T01:40:46.754Z,0.90
2023-03-04T01:43:20.159Z,0.90
2023-03-04T01:45:48.550Z,0.80
2023-03-04T01:48:15.708Z,0.80
2023-03-04T01:50:42.548Z,0.80
2023-03-04T01:53:15.091Z,0.80
2023-03-04T01:55:41.870Z,0.80
2023-03-04T01:58:14.896Z,0.80
2023-03-04T02:00:41.709Z,0.80
2023-03-04T02:03:13.531Z,0.70
2023-03-04T02:05:42.754Z,0.70
2023-03-04T02:08:09.574Z,0.60
2023-03-04T02:10:36.363Z,0.70
2023-03-04T02:13:05.828Z,0.70
2023-03-04T02:15:34.854Z,0.70
2023-03-04T02:18:18.804Z,0.70
2023-03-04T02:20:47.864Z,0.70
2023-03-04T02:23:25.798Z,0.70
2023-03-04T02:26:20.569Z,0.80
2023-03-04T02:28:48.679Z,0.80
2023-03-04T02:31:31.656Z,0.80
2023-03-04T02:34:02.484Z,0.90
2023-03-04T02:36:29.467Z,0.90
2023-03-04T02:38:56.466Z,0.90
2023-03-04T02:41:25.096Z,0.80
2023-03-04T02:43:53.340Z,0.80
2023-03-04T02:46:22.724Z,0.80
2023-03-04T02:48:50.544Z,0.90
2023-03-04T02:51:17.527Z,1.00
2023-03-04T02:53:44.273Z,1.00
2023-03-04T02:56:11.044Z,1.00
2023-03-04T02:58:38.357Z,1.00
2023-03-04T03:01:06.305Z,1.10
2023-03-04T03:03:33.091Z,1.10
2023-03-04T03:06:02.341Z,1.20
2023-03-04T03:08:29.132Z,1.20
2023-03-04T03:10:58.385Z,1.10
2023-03-04T03:13:29.014Z,1.20
2023-03-04T03:15:55.813Z,1.20
2023-03-04T03:18:22.696Z,1.20
2023-03-04T03:20:49.562Z,1.30
2023-03-04T03:23:18.099Z,1.30
2023-03-04T03:25:44.946Z,1.30
2023-03-04T03:28:13.933Z,1.30
2023-03-04T03:30:40.737Z,1.40
2023-03-04T03:33:12.515Z,1.40
2023-03-04T03:35:39.469Z,1.30
2023-03-04T03:38:10.913Z,1.40
2023-03-04T03:40:37.668Z,1.40
2023-03-04T03:43:07.505Z,1.40
2023-03-04T03:45:34.599Z,1.50
2023-03-04T03:48:01.446Z,1.50
2023-03-04T03:50:29.458Z,1.50
2023-03-04T03:52:56.294Z,1.60
2023-03-04T03:55:23.131Z,1.60
2023-03-04T03:57:50.177Z,1.60
2023-03-04T04:00:20.113Z,1.60
2023-03-04T04:02:47.264Z,1.60
2023-03-04T04:05:14.259Z,1.60
2023-03-04T04:07:45.969Z,1.70
2023-03-04T04:10:12.735Z,1.70
2023-03-04T04:12:39.549Z,1.80
2023-03-04T04:15:07.013Z,1.80
2023-03-04T04:17:33.840Z,1.80
2023-03-04T04:20:02.828Z,1.80
2023-03-04T04:22:29.763Z,1.90
2023-03-04T04:24:56.526Z,1.80
2023-03-04T04:27:23.300Z,1.80
2023-03-04T04:29:50.137Z,1.90
2023-03-04T04:32:21.564Z,2.00
2023-03-04T04:34:48.454Z,2.00
2023-03-04T04:37:15.236Z,2.00
2023-03-04T04:39:44.643Z,2.10
2023-03-04T04:42:11.659Z,2.10
2023-03-04T04:44:39.091Z,2.10
2023-03-04T04:47:07.373Z,2.00
2023-03-04T04:49:36.672Z,2.10
2023-03-04T04:52:03.600Z,2.00
2023-03-04T04:54:32.746Z,2.00
2023-03-04T04:56:59.541Z,2.00
2023-03-04T04:59:30.875Z,2.10
2023-03-04T05:01:57.651Z,2.20
2023-03-04T05:04:24.472Z,2.10
2023-03-04T05:06:51.284Z,2.10
2023-03-04T05:09:19.516Z,2.10
2023-03-04T05:11:48.436Z,2.10
2023-03-04T05:14:17.431Z,2.10
2023-03-04T05:16:44.227Z,2.10
2023-03-04T05:19:11.411Z,2.10
2023-03-04T05:21:38.234Z,2.10
2023-03-04T05:24:05.242Z,2.10
2023-03-04T05:26:32.059Z,2.10
2023-03-04T05:28:58.847Z,2.10
2023-03-04T05:31:25.668Z,2.10
2023-03-04T05:33:52.499Z,2.10
2023-03-04T05:36:21.626Z,2.10
2023-03-04T05:38:48.457Z,2.00
2023-03-04T05:41:15.280Z,2.00
2023-03-04T05:43:44.406Z,2.00
2023-03-04T05:46:15.405Z,2.00
2023-03-04T05:48:50.297Z,2.00
2023-03-04T05:51:17.122Z,2.00
2023-03-04T05:53:43.943Z,2.00
2023-03-04T05:56:16.122Z,2.00
2023-03-04T05:58:47.486Z,2.00
2023-03-04T06:01:14.341Z,2.00
2023-03-04T06:03:43.803Z,2.00
2023-03-04T06:06:10.732Z,2.00
2023-03-04T06:08:37.560Z,2.00
2023-03-04T06:11:06.845Z,2.00
2023-03-04T06:13:36.050Z,1.90
2023-03-04T06:16:02.864Z,2.00
2023-03-04T06:18:29.815Z,1.90
2023-03-04T06:20:58.497Z,1.90
2023-03-04T06:23:25.512Z,2.00
2023-03-04T06:25:53.841Z,2.00
2023-03-04T06:28:23.174Z,2.00
2023-03-04T06:30:52.780Z,2.00
2023-03-04T06:33:24.482Z,2.00
2023-03-04T06:35:56.844Z,2.20
2023-03-04T06:38:23.986Z,2.10
2023-03-04T06:40:50.831Z,2.00
2023-03-04T06:43:17.607Z,2.00
2023-03-04T06:45:44.441Z,2.10
2023-03-04T06:48:11.565Z,2.10
2023-03-04T06:50:40.082Z,2.10
2023-03-04T06:53:06.864Z,2.10
2023-03-04T06:55:33.623Z,2.00
2023-03-04T06:58:05.098Z,2.10
2023-03-04T07:00:34.193Z,2.10
2023-03-04T07:03:01.137Z,2.10
2023-03-04T07:05:28.028Z,2.10
2023-03-04T07:07:54.897Z,2.10
2023-03-04T07:10:21.678Z,2.20
2023-03-04T07:12:48.484Z,2.10
2023-03-04T07:15:15.285Z,2.10
2023-03-04T07:17:42.043Z,2.00
2023-03-04T07:20:09.634Z,2.00
2023-03-04T07:22:36.414Z,2.00
2023-03-04T07:25:05.784Z,2.10
2023-03-04T07:27:34.832Z,2.10
2023-03-04T07:30:01.671Z,2.20
2023-03-04T07:32:28.467Z,2.10
2023-03-04T07:34:55.267Z,2.10
2023-03-04T07:37:22.123Z,2.10
2023-03-04T07:39:51.133Z,2.10
2023-03-04T07:42:20.115Z,2.10
2023-03-04T07:44:51.515Z,2.10
2023-03-04T07:47:18.353Z,2.10
2023-03-04T07:49:45.118Z,2.10
2023-03-04T07:52:14.309Z,2.20
2023-03-04T07:54:43.249Z,2.20
2023-03-04T07:57:10.131Z,2.30
2023-03-04T07:59:36.938Z,2.20
2023-03-04T08:02:03.878Z,2.20
2023-03-04T08:04:30.761Z,2.20
2023-03-04T08:06:57.620Z,2.30
2023-03-04T08:09:26.619Z,2.30
2023-03-04T08:11:53.413Z,2.30
2023-03-04T08:14:20.293Z,2.20
2023-03-04T08:16:49.226Z,2.30
2023-03-04T08:19:15.992Z,2.40
2023-03-04T08:21:42.820Z,2.30
2023-03-04T08:24:10.440Z,2.20
2023-03-04T08:26:50.394Z,2.20
2023-03-04T08:29:23.565Z,2.30
2023-03-04T08:31:54.257Z,2.30
2023-03-04T08:34:23.380Z,2.40
2023-03-04T08:36:50.160Z,2.30
2023-03-04T08:39:18.023Z,2.30
2023-03-04T08:41:44.855Z,2.30
2023-03-04T08:44:12.038Z,2.40
2023-03-04T08:46:39.568Z,2.30
2023-03-04T08:49:06.411Z,2.50
2023-03-04T08:51:35.663Z,2.40
2023-03-04T08:54:03.482Z,2.40
2023-03-04T08:56:30.290Z,2.40
2023-03-04T08:58:59.573Z,2.40
2023-03-04T09:01:26.389Z,2.30
2023-03-04T09:03:53.404Z,2.30
2023-03-04T09:06:20.298Z,2.30
2023-03-04T09:08:47.167Z,2.30
2023-03-04T09:11:14.077Z,2.30
2023-03-04T09:13:40.841Z,2.20
2023-03-04T09:16:14.426Z,2.30
2023-03-04T09:18:41.387Z,2.30
2023-03-04T09:21:08.854Z,2.20
2023-03-04T09:23:36.410Z,2.30
2023-03-04T09:26:14.205Z,2.40
2023-03-04T09:28:45.722Z,2.50
2023-03-04T09:31:13.872Z,2.50
2023-03-04T09:33:43.246Z,2.60
2023-03-04T09:36:13.519Z,2.70
2023-03-04T09:38:40.572Z,2.70
2023-03-04T09:41:15.472Z,2.70
2023-03-04T09:43:42.288Z,2.70
2023-03-04T09:46:31.248Z,2.60
2023-03-04T09:48:58.049Z,2.60
2023-03-04T09:52:01.798Z,2.70
2023-03-04T09:54:37.762Z,2.60
2023-03-04T09:57:28.078Z,2.60
2023-03-04T10:00:10.676Z,2.60
2023-03-04T10:03:06.733Z,2.60
2023-03-04T10:05:35.220Z,2.70
2023-03-04T10:08:16.833Z,2.70
2023-03-04T10:10:46.149Z,2.80
2023-03-04T10:13:18.949Z,2.70
2023-03-04T10:15:47.218Z,2.70
2023-03-04T10:18:36.769Z,2.70
2023-03-04T10:21:24.500Z,2.80
2023-03-04T10:23:54.497Z,2.80
2023-03-04T10:26:23.582Z,2.80
2023-03-04T10:28:50.518Z,2.90
2023-03-04T10:31:22.972Z,2.90
2023-03-04T10:33:49.842Z,2.90
2023-03-04T10:36:31.506Z,2.90
2023-03-04T10:39:07.357Z,3.00
2023-03-04T10:41:36.408Z,3.10
2023-03-04T10:44:04.319Z,3.10
2023-03-04T10:46:31.933Z,3.10
2023-03-04T10:49:01.338Z,3.20
2023-03-04T10:51:31.076Z,3.10
2023-03-04T10:54:10.428Z,3.10
2023-03-04T10:56:45.576Z,3.20
2023-03-04T10:59:32.180Z,3.10
2023-03-04T11:02:00.180Z,3.10
2023-03-04T11:04:28.188Z,3.10
2023-03-04T11:06:55.450Z,3.10
2023-03-04T11:09:32.014Z,3.10
2023-03-04T11:12:02.616Z,3.20
2023-03-04T11:14:44.872Z,3.20
2023-03-04T11:17:42.294Z,3.10
2023-03-04T11:20:36.286Z,3.10
2023-03-04T11:23:14.417Z,3.10
2023-03-04T11:25:47.350Z,3.10
2023-03-04T11:28:15.776Z,3.10
2023-03-04T11:30:53.719Z,3.20
2023-03-04T11:33:49.813Z,3.20
2023-03-04T11:36:29.051Z,3.30
2023-03-04T11:38:58.060Z,3.30
2023-03-04T11:41:36.604Z,3.30
2023-03-04T11:44:05.709Z,3.40
2023-03-04T11:46:35.954Z,3.40
2023-03-04T11:49:36.610Z,3.40
2023-03-04T11:52:24.348Z,3.40
2023-03-04T11:55:08.560Z,3.40
2023-03-04T11:58:10.622Z,3.40
2023-03-04T12:00:42.541Z,3.50
2023-03-04T12:03:15.128Z,3.50
2023-03-04T12:06:17.460Z,3.50
2023-03-04T12:09:09.098Z,3.50
2023-03-04T12:12:00.932Z,3.60
2023-03-04T12:15:02.678Z,3.60
2023-03-04T12:18:02.890Z,3.50
2023-03-04T12:20:46.894Z,3.50
2023-03-04T12:23:22.385Z,3.50
2023-03-04T12:26:03.540Z,3.60
2023-03-04T12:28:41.811Z,3.60
2023-03-04T12:31:21.024Z,3.60
2023-03-04T12:34:06.208Z,3.70
2023-03-04T12:36:38.850Z,3.80
2023-03-04T12:39:33.015Z,3.80
2023-03-04T12:42:07.120Z,3.80
2023-03-04T12:44:46.062Z,3.80
2023-03-04T12:47:37.772Z,3.90
2023-03-04T12:50:10.494Z,4.00
2023-03-04T12:52:55.889Z,4.10
2023-03-04T12:55:31.190Z,4.10
2023-03-04T12:58:00.659Z,4.20
2023-03-04T13:00:47.578Z,4.20
2023-03-04T13:03:32.651Z,4.30
2023-03-04T13:06:17.887Z,4.20
2023-03-04T13:09:03.163Z,4.20
2023-03-04T13:11:30.998Z,4.30
2023-03-04T13:14:17.715Z,4.20
2023-03-04T13:16:48.102Z,4.30
2023-03-04T13:19:42.915Z,4.30
2023-03-04T13:22:40.932Z,4.40
2023-03-04T13:25:45.215Z,4.50
2023-03-04T13:28:30.935Z,4.50
2023-03-04T13:30:59.489Z,4.50
2023-03-04T13:33:26.305Z,4.60
2023-03-04T13:36:02.106Z,4.50
2023-03-04T13:38:31.670Z,4.40
2023-03-04T13:41:16.593Z,4.30
2023-03-04T13:43:52.311Z,4.40
2023-03-04T13:46:23.800Z,4.40
2023-03-04T13:48:50.913Z,4.50
2023-03-04T13:51:33.749Z,4.50
2023-03-04T13:54:02.907Z,4.50
2023-03-04T13:56:37.560Z,4.40
2023-03-04T13:59:07.632Z,4.30
2023-03-04T14:01:46.005Z,3.90
2023-03-04T14:04:15.875Z,3.50
2023-03-04T14:06:45.377Z,3.40
2023-03-04T14:09:21.895Z,3.50
2023-03-04T14:11:49.592Z,3.40
2023-03-04T14:14:22.864Z,3.40
2023-03-04T14:16:52.099Z,3.40
2023-03-04T14:19:48.396Z,3.60
2023-03-04T14:22:24.956Z,3.60
2023-03-04T14:25:13.727Z,3.70
2023-03-04T14:27:40.776Z,3.60
2023-03-04T14:30:39.186Z,3.60
2023-03-04T14:33:13.198Z,3.60
2023-03-04T14:35:46.245Z,3.60
2023-03-04T14:38:31.184Z,3.50
2023-03-04T14:40:59.953Z,3.60
2023-03-04T14:43:26.722Z,3.60
2023-03-04T14:45:54.732Z,3.60
2023-03-04T14:48:26.326Z,3.60
2023-03-04T14:50:53.648Z,3.60
2023-03-04T14:53:27.074Z,3.60
2023-03-04T14:56:01.516Z,3.60
2023-03-04T14:58:34.458Z,3.70
2023-03-04T15:01:09.521Z,3.80
2023-03-04T15:03:40.911Z,3.90
2023-03-04T15:06:19.765Z,4.00
2023-03-04T15:08:46.757Z,4.10
2023-03-04T15:11:48.165Z,4.10
2023-03-04T15:14:50.638Z,4.10
2023-03-04T15:17:27.017Z,4.20
2023-03-04T15:20:05.664Z,4.20
2023-03-04T15:22:37.271Z,4.10
2023-03-04T15:25:04.224Z,4.20
2023-03-04T15:27:33.543Z,4.10
2023-03-04T15:30:01.687Z,4.10
2023-03-04T15:32:31.033Z,4.20
2023-03-04T15:34:57.840Z,4.20
2023-03-04T15:37:26.397Z,4.20
2023-03-04T15:39:53.217Z,4.10
2023-03-04T15:42:22.522Z,4.20
2023-03-04T15:44:49.346Z,4.10
2023-03-04T15:47:16.204Z,4.10
2023-03-04T15:49:44.101Z,4.00
2023-03-04T15:52:15.680Z,4.00
2023-03-04T15:54:42.487Z,4.00
2023-03-04T15:57:14.547Z,3.90
2023-03-04T15:59:43.653Z,3.90
2023-03-04T16:02:15.987Z,3.80
2023-03-04T16:04:45.076Z,3.60
2023-03-04T16:07:16.538Z,3.50
2023-03-04T16:09:45.609Z,3.40
2023-03-04T16:12:14.991Z,3.40
2023-03-04T16:14:42.505Z,3.30
2023-03-04T16:17:11.905Z,3.20
2023-03-04T16:19:38.880Z,3.20
2023-03-04T16:22:05.729Z,3.10
2023-03-04T16:24:34.751Z,3.10
2023-03-04T16:27:01.600Z,3.00
2023-03-04T16:29:30.934Z,2.90
2023-03-04T16:31:57.726Z,2.90
2023-03-04T16:34:27.091Z,2.90
2023-03-04T16:36:53.903Z,2.90
2023-03-04T16:39:26.138Z,2.80
2023-03-04T16:41:53.073Z,2.70
2023-03-04T16:44:19.854Z,2.70
2023-03-04T16:46:49.207Z,2.60
2023-03-04T16:49:18.153Z,2.60
2023-03-04T16:51:49.420Z,2.60
2023-03-04T16:54:18.632Z,2.50
2023-03-04T16:56:45.400Z,2.40
2023-03-04T16:59:15.101Z,2.40
2023-03-04T17:01:41.987Z,2.30
2023-03-04T17:04:11.047Z,2.30
2023-03-04T17:06:38.603Z,2.20
2023-03-04T17:09:06.399Z,2.20
2023-03-04T17:11:35.604Z,2.20
2023-03-04T17:14:02.511Z,2.30
2023-03-04T17:16:31.704Z,2.30
2023-03-04T17:18:58.529Z,2.30
2023-03-04T17:21:28.504Z,2.30
2023-03-04T17:23:55.262Z,2.20
2023-03-04T17:26:22.799Z,2.20
2023-03-04T17:28:50.293Z,2.30
2023-03-04T17:31:18.935Z,2.30
2023-03-04T17:33:49.537Z,2.20
2023-03-04T17:36:19.091Z,2.30
2023-03-04T17:38:49.613Z,2.30
2023-03-04T17:41:18.301Z,2.20
2023-03-04T17:43:45.823Z,2.20
2023-03-04T17:46:14.096Z,2.20
2023-03-04T17:48:41.050Z,2.10
2023-03-04T17:51:08.093Z,2.10
2023-03-04T17:53:34.920Z,2.00
2023-03-04T17:56:05.037Z,1.90
2023-03-04T17:58:32.935Z,1.90
2023-03-04T18:01:05.274Z,1.80
2023-03-04T18:03:34.236Z,1.80
2023-03-04T18:06:01.012Z,1.70
2023-03-04T18:08:27.816Z,1.80
2023-03-04T18:10:59.874Z,1.80
2023-03-04T18:13:26.677Z,1.70
2023-03-04T18:15:53.433Z,1.70
2023-03-04T18:18:22.869Z,1.70
2023-03-04T18:20:49.766Z,1.70
2023-03-04T18:23:18.678Z,1.70
2023-03-04T18:25:47.687Z,1.70
2023-03-04T18:28:16.870Z,1.70
2023-03-04T18:30:49.229Z,1.70
2023-03-04T18:33:16.068Z,1.70
2023-03-04T18:35:42.944Z,1.70
2023-03-04T18:38:09.785Z,1.60
2023-03-04T18:40:39.776Z,1.60
2023-03-04T18:43:08.981Z,1.50
2023-03-04T18:45:35.861Z,1.50
2023-03-04T18:48:02.720Z,1.50
2023-03-04T18:50:33.917Z,1.40
2023-03-04T18:53:03.014Z,1.40
2023-03-04T18:55:30.614Z,1.30
2023-03-04T18:58:01.451Z,1.30
2023-03-04T19:00:31.306Z,1.40
2023-03-04T19:03:11.822Z,1.40
2023-03-04T19:05:39.221Z,1.30
2023-03-04T19:08:06.851Z,1.30
2023-03-04T19:10:35.797Z,1.30
2023-03-04T19:13:07.777Z,1.20
2023-03-04T19:15:34.739Z,1.10
2023-03-04T19:18:01.559Z,1.10
2023-03-04T19:20:30.615Z,1.10
2023-03-04T19:22:57.466Z,1.10
2023-03-04T19:25:26.520Z,1.10
2023-03-04T19:27:55.363Z,1.10
2023-03-04T19:30:22.274Z,1.10
2023-03-04T19:32:49.230Z,1.00
2023-03-04T19:35:16.806Z,0.90
2023-03-04T19:37:45.830Z,0.90
2023-03-04T19:40:12.877Z,1.00
2023-03-04T19:42:39.766Z,0.90
2023-03-04T19:45:10.180Z,0.90
2023-03-04T19:47:40.228Z,0.90
2023-03-04T19:50:08.030Z,1.10
2023-03-04T19:52:34.869Z,1.00
2023-03-04T19:55:01.817Z,0.90
2023-03-04T19:57:28.673Z,0.90
2023-03-04T19:59:55.449Z,0.90
2023-03-04T20:02:26.655Z,0.90
2023-03-04T20:04:53.478Z,0.90
2023-03-04T20:07:22.852Z,1.00
2023-03-04T20:09:49.707Z,0.90
2023-03-04T20:12:16.547Z,0.90
2023-03-04T20:14:43.601Z,0.90
2023-03-04T20:17:10.383Z,1.00
2023-03-04T20:19:37.423Z,1.00
2023-03-04T20:22:05.712Z,1.00
2023-03-04T20:24:32.647Z,1.10
2023-03-04T20:26:59.561Z,1.10
2023-03-04T20:29:28.582Z,1.10
2023-03-04T20:31:55.392Z,1.20
2023-03-04T20:34:22.843Z,1.20
2023-03-04T20:36:52.035Z,1.20
2023-03-04T20:39:28.679Z,1.20
2023-03-04T20:42:01.874Z,1.10
2023-03-04T20:44:31.582Z,1.10
2023-03-04T20:46:58.486Z,1.10
2023-03-04T20:49:26.700Z,1.10
2023-03-04T20:51:55.875Z,1.10
2023-03-04T20:54:22.766Z,1.10
2023-03-04T20:56:52.264Z,1.10
2023-03-04T20:59:21.603Z,1.10
2023-03-04T21:01:48.512Z,1.00
2023-03-04T21:04:18.171Z,1.00
2023-03-04T21:06:45.241Z,0.90
2023-03-04T21:09:16.187Z,0.90
2023-03-04T21:11:45.699Z,0.90
2023-03-04T21:14:12.486Z,0.90
2023-03-04T21:16:39.273Z,0.80
2023-03-04T21:19:08.253Z,0.80
2023-03-04T21:21:37.419Z,0.80
2023-03-04T21:24:04.361Z,0.80
2023-03-04T21:26:31.226Z,0.80
2023-03-04T21:28:57.990Z,0.80
2023-03-04T21:31:29.000Z,0.80
2023-03-04T21:33:56.075Z,0.80
2023-03-04T21:36:23.386Z,0.80
2023-03-04T21:38:50.299Z,0.80
2023-03-04T21:41:18.144Z,0.70
2023-03-04T21:43:45.063Z,0.70
2023-03-04T21:46:12.600Z,0.80
2023-03-04T21:48:43.359Z,0.80
2023-03-04T21:51:14.266Z,0.80
2023-03-04T21:53:41.086Z,0.90
2023-03-04T21:56:10.369Z,0.90
2023-03-04T21:58:41.859Z,0.90
2023-03-04T22:01:15.415Z,0.80
2023-03-04T22:03:42.264Z,0.80
2023-03-04T22:06:10.024Z,0.80
2023-03-04T22:08:39.093Z,0.70
2023-03-04T22:11:06.992Z,0.80
2023-03-04T22:13:36.029Z,0.80
2023-03-04T22:16:02.910Z,0.80
2023-03-04T22:18:29.908Z,0.80
2023-03-04T22:21:10.099Z,0.70
2023-03-04T22:23:39.528Z,0.70
2023-03-04T22:26:07.287Z,0.70
2023-03-04T22:28:36.605Z,0.70
2023-03-04T22:31:03.612Z,0.80
2023-03-04T22:33:32.814Z,0.60
2023-03-04T22:36:02.361Z,0.60
2023-03-04T22:38:31.697Z,0.50
2023-03-04T22:40:58.712Z,0.60
2023-03-04T22:43:27.970Z,0.60
2023-03-04T22:45:54.760Z,0.50
2023-03-04T22:48:24.072Z,0.60
2023-03-04T22:50:50.888Z,0.60
2023-03-04T22:53:17.679Z,0.60
2023-03-04T22:55:46.561Z,0.60
2023-03-04T22:58:13.341Z,0.60
2023-03-04T23:00:40.203Z,0.50
2023-03-04T23:03:10.289Z,0.60
2023-03-04T23:05:37.111Z,0.60
2023-03-04T23:08:06.147Z,0.40
2023-03-04T23:10:35.037Z,0.20
2023-03-04T23:13:01.883Z,0.20
2023-03-04T23:15:30.780Z,0.00
2023-03-04T23:17:57.613Z,-0.20
2023-03-04T23:20:26.801Z,-0.20
2023-03-04T23:22:53.571Z,-0.30
2023-03-04T23:25:22.567Z,-0.30
2023-03-04T23:27:54.023Z,-0.50
2023-03-04T23:30:20.800Z,-0.30
2023-03-04T23:32:47.560Z,-0.30
2023-03-04T23:35:14.369Z,-0.30
2023-03-04T23:37:43.330Z,-0.50
2023-03-04T23:40:11.025Z,-0.40
2023-03-04T23:42:40.926Z,-0.40
2023-03-04T23:45:08.213Z,-0.50
2023-03-04T23:47:37.156Z,-0.50
2023-03-04T23:50:04.188Z,-0.50
2023-03-04T23:52:31.069Z,-0.50
2023-03-04T23:54:57.987Z,-0.60
2023-03-04T23:57:26.970Z,-0.60
2023-03-04T23:59:53.768Z,-0.70
